Monroe Center, Ohio
Current Conditions -  °F | °C
As of 2:53 AM on Monday 26 Jan 2015 (Local Time) from KHZY Reporting Station
Overcast Overcast  
Wind Chill:   Ceiling: 4400
Heat Index: 17°   Visibility: 10mi
Dew Point:   Wind: 7mph
Humidity: 65%   Direction: 50°NE
Pressure: 29.85"   Gusts: NA
Location:  41.8949°N, 80.5816°W
Report Text: KHZY 260753Z AUTO 05006KT 10SM OVC044 M08/M14 A2985 RMK AO2 SLP121 T10831139
Loading
Personal Weather Stations






























Interactive Weather Map New forecast layout! Learn more

10-Day Weather Forecast

Advertisements
Track Severe Weather on mobile